DLH5WJ EDDM-EPKK
Flight info
| Callsign | DLH5WJ |
|---|---|
| Flight time | N/A |
| Altitude | 33000 |
| Route | BIBAG2E/08R BIBAG Y133 BEPAS/N0458F330 DCT NELPA DCT PADKA |
| Aircraft | A319/M-SDE3FGHIRWY/LB1 |
Departure
| Time | N/A |
|---|---|
| Airport | Munich Airport (EDDM) |
Arrival
| Time | 2026-04-30 18:26 |
|---|---|
| Airport | Kraków John Paul II International Airport (EPKK) |
| Time | Latitude | Longitude | Altitude | Speed | Heading |
|---|---|---|---|---|---|
| 2026-04-30 17:39 | 49.06995 | 14.14617 | 33407 ft | 393 kts | 64° |
| 2026-04-30 17:42 | 49.17139 | 14.53127 | 33404 ft | 390 kts | 64° |
| 2026-04-30 17:43 | 49.22151 | 14.72349 | 33398 ft | 390 kts | 65° |
| 2026-04-30 17:44 | 49.28108 | 14.95495 | 33433 ft | 389 kts | 65° |
| 2026-04-30 17:47 | 49.35612 | 15.30959 | 33416 ft | 389 kts | 68° |
| 2026-04-30 17:48 | 49.41393 | 15.58701 | 33384 ft | 391 kts | 68° |
| 2026-04-30 17:50 | 49.47925 | 15.90543 | 33407 ft | 392 kts | 68° |
| 2026-04-30 17:52 | 49.52776 | 16.14596 | 33379 ft | 394 kts | 68° |
| 2026-04-30 17:54 | 49.59994 | 16.50811 | 33399 ft | 395 kts | 68° |
| 2026-04-30 17:56 | 49.66337 | 16.83275 | 33406 ft | 396 kts | 68° |
| 2026-04-30 17:58 | 49.71033 | 17.07698 | 33385 ft | 396 kts | 69° |
| 2026-04-30 18:00 | 49.77200 | 17.40185 | 32274 ft | 382 kts | 69° |
| 2026-04-30 18:00 | 49.79417 | 17.52011 | 31546 ft | 382 kts | 69° |
| 2026-04-30 18:01 | 49.80882 | 17.59841 | 31049 ft | 381 kts | 69° |
| 2026-04-30 18:02 | 49.83070 | 17.71652 | 30278 ft | 380 kts | 69° |
| 2026-04-30 18:03 | 49.87349 | 17.94903 | 28608 ft | 387 kts | 69° |
| 2026-04-30 18:04 | 49.89557 | 18.06999 | 27792 ft | 391 kts | 69° |
| 2026-04-30 18:05 | 49.92501 | 18.23332 | 27148 ft | 394 kts | 69° |
| 2026-04-30 18:06 | 49.93791 | 18.40351 | 26122 ft | 399 kts | 79° |
| 2026-04-30 18:07 | 49.94531 | 18.57560 | 25166 ft | 401 kts | 81° |
| 2026-04-30 18:08 | 49.94981 | 18.70440 | 24455 ft | 399 kts | 81° |
| 2026-04-30 18:09 | 49.95580 | 18.87588 | 23413 ft | 396 kts | 81° |
| 2026-04-30 18:10 | 49.96160 | 19.04603 | 22341 ft | 395 kts | 82° |
| 2026-04-30 18:11 | 49.96706 | 19.21502 | 20707 ft | 387 kts | 82° |
| 2026-04-30 18:11 | 49.97084 | 19.33829 | 18741 ft | 376 kts | 82° |
| 2026-04-30 18:12 | 49.97442 | 19.45839 | 16965 ft | 365 kts | 82° |
| 2026-04-30 18:13 | 49.97665 | 19.53625 | 15885 ft | 357 kts | 83° |
| 2026-04-30 18:13 | 49.97983 | 19.64972 | 14232 ft | 347 kts | 83° |
| 2026-04-30 18:14 | 49.98184 | 19.72371 | 13283 ft | 333 kts | 83° |
| 2026-04-30 18:15 | 49.99348 | 19.82188 | 12879 ft | 288 kts | 74° |
| 2026-04-30 18:15 | 50.00490 | 19.90698 | 12473 ft | 249 kts | 73° |
| 2026-04-30 18:16 | 50.01184 | 19.95832 | 11964 ft | 239 kts | 73° |
| 2026-04-30 18:16 | 50.01866 | 20.00854 | 11475 ft | 237 kts | 73° |
| 2026-04-30 18:17 | 50.02206 | 20.03357 | 11215 ft | 237 kts | 73° |
| 2026-04-30 18:17 | 50.02545 | 20.05864 | 10963 ft | 236 kts | 74° |
| 2026-04-30 18:17 | 50.03221 | 20.10866 | 10386 ft | 237 kts | 74° |
| 2026-04-30 18:18 | 50.03562 | 20.13386 | 9952 ft | 240 kts | 74° |
| 2026-04-30 18:18 | 50.03908 | 20.15934 | 9553 ft | 239 kts | 74° |
| 2026-04-30 18:18 | 50.04251 | 20.18471 | 9056 ft | 240 kts | 74° |
| 2026-04-30 18:18 | 50.04639 | 20.20937 | 8606 ft | 235 kts | 64° |
| 2026-04-30 18:19 | 50.05602 | 20.22887 | 8182 ft | 227 kts | 34° |
| 2026-04-30 18:19 | 50.07071 | 20.23765 | 7583 ft | 231 kts | 3° |
| 2026-04-30 18:19 | 50.08651 | 20.23450 | 7153 ft | 230 kts | 349° |
| 2026-04-30 18:19 | 50.10181 | 20.22772 | 6686 ft | 229 kts | 336° |
| 2026-04-30 18:20 | 50.11488 | 20.21366 | 6200 ft | 230 kts | 316° |
| 2026-04-30 18:20 | 50.12410 | 20.19334 | 5741 ft | 232 kts | 297° |
| 2026-04-30 18:20 | 50.12836 | 20.16887 | 5190 ft | 238 kts | 276° |
| 2026-04-30 18:20 | 50.12695 | 20.14371 | 4924 ft | 232 kts | 260° |
| 2026-04-30 18:21 | 50.12363 | 20.12017 | 4880 ft | 212 kts | 261° |
| 2026-04-30 18:21 | 50.12072 | 20.09821 | 4640 ft | 203 kts | 261° |
| 2026-04-30 18:21 | 50.11789 | 20.07725 | 4411 ft | 194 kts | 262° |
| 2026-04-30 18:21 | 50.11511 | 20.05683 | 4193 ft | 192 kts | 261° |
| 2026-04-30 18:22 | 50.11237 | 20.03665 | 3993 ft | 187 kts | 261° |
| 2026-04-30 18:22 | 50.10700 | 19.99735 | 3416 ft | 184 kts | 261° |
| 2026-04-30 18:22 | 50.10437 | 19.97817 | 3146 ft | 178 kts | 261° |
| 2026-04-30 18:23 | 50.10181 | 19.95950 | 2924 ft | 174 kts | 261° |
| 2026-04-30 18:23 | 50.09934 | 19.94145 | 2683 ft | 167 kts | 262° |
| 2026-04-30 18:23 | 50.09698 | 19.92435 | 2471 ft | 159 kts | 262° |
| 2026-04-30 18:23 | 50.09472 | 19.90802 | 2216 ft | 151 kts | 261° |
| 2026-04-30 18:24 | 50.09052 | 19.87749 | 1830 ft | 139 kts | 260° |
| 2026-04-30 18:24 | 50.08851 | 19.86282 | 1646 ft | 137 kts | 260° |
| 2026-04-30 18:24 | 50.08653 | 19.84838 | 1463 ft | 135 kts | 259° |
| 2026-04-30 18:25 | 50.08456 | 19.83403 | 1289 ft | 135 kts | 259° |
| 2026-04-30 18:25 | 50.08058 | 19.80546 | 916 ft | 135 kts | 259° |
| 2026-04-30 18:25 | 50.07863 | 19.79142 | 802 ft | 126 kts | 258° |
| 2026-04-30 18:26 | 50.07623 | 19.77401 | 800 ft | 47 kts | 258° |
| 2026-04-30 18:26 | 50.07570 | 19.77017 | 803 ft | 18 kts | 258° |
| 2026-04-30 18:26 | 50.07517 | 19.76847 | 803 ft | 18 kts | 203° |
| 2026-04-30 18:27 | 50.07313 | 19.76993 | 800 ft | 18 kts | 81° |
| 2026-04-30 18:27 | 50.07339 | 19.77186 | 800 ft | 19 kts | 77° |
| 2026-04-30 18:28 | 50.07400 | 19.77628 | 800 ft | 24 kts | 77° |
| 2026-04-30 18:28 | 50.07440 | 19.77905 | 800 ft | 28 kts | 78° |
| 2026-04-30 18:28 | 50.07531 | 19.78556 | 800 ft | 31 kts | 78° |
| 2026-04-30 18:29 | 50.07576 | 19.78886 | 800 ft | 32 kts | 77° |
| 2026-04-30 18:29 | 50.07693 | 19.79730 | 800 ft | 18 kts | 77° |
| 2026-04-30 18:30 | 50.07557 | 19.79918 | 800 ft | 17 kts | 168° |
| 2026-04-30 18:30 | 50.07373 | 19.79984 | 800 ft | 9 kts | 167° |
| 2026-04-30 18:31 | 50.07319 | 19.80003 | 800 ft | 3 kts | 168° |
| 2026-04-30 18:31 | 50.07306 | 19.80007 | 800 ft | 0 kts | 168° |